KTRL/TRL METAR and TAF weather

Enter ICAO airport designator
Station Type Date Time Source
KTRL METAR 2019/06/27 09:53 UTC NOAA

KTRL 270953Z AUTO 08003KT 10SM BKN013 22/20 A3016 RMK AO2 SLP206 T02170200


Station Type Date Time Source
KTRL Decoded METAR 2019/06/27 09:53 UTC NOAA

TERRELL MUNICIPAL AIRPORT, TX, United States (KTRL) 32-43N 96-16W 144M
Jun 27, 2019 - 05:53 AM EDT / 2019.06.27 0953 UTC
Wind: from the E (080 degrees) at 3 MPH (3 KT):0
Visibility: 10 mile(s):0
Sky conditions: mostly cloudy
Temperature: 71.1 F (21.7 C)
Dew Point: 68.0 F (20.0 C)
Relative Humidity: 90%
Pressure (altimeter): 30.16 in. Hg (1021 hPa)
ob: KTRL 270953Z AUTO 08003KT 10SM BKN013 22/20 A3016 RMK AO2 SLP206 T02170200
cycle: 10

Station Type Date Time Source
KTRL TAF UTC NOAA

Error!

Example: see airport list